Time;durP1;ratioP1;P1;durP2;ratioP2;P2;SDS_P1;SDS_P2;PMS_P1;PMS_P2;Temp;Humidity;BMP_temperature;BMP_pressure;BME280_temperature;BME280_humidity;BME280_pressure;Samples;Min_cycle;Max_cycle;Signal;HPM_P1;HPM_P2
2021/03/08 00:00:18;;;;;;;45.17;25.93;;;4.40;79.10;;;;;;5080199;28;20063;-81
2021/03/08 00:02:46;;;;;;;41.83;23.60;;;4.30;79.30;;;;;;5081639;28;20028;-81
2021/03/08 00:05:13;;;;;;;39.70;23.63;;;4.30;79.30;;;;;;5083629;28;20272;-80
2021/03/08 00:07:40;;;;;;;37.33;23.30;;;4.30;79.30;;;;;;5075959;28;20043;-80
2021/03/08 00:10:08;;;;;;;40.77;22.60;;;4.30;79.40;;;;;;5091908;28;20031;-80
2021/03/08 00:12:34;;;;;;;38.73;23.77;;;4.30;79.40;;;;;;5097494;28;20039;-80
2021/03/08 00:15:01;;;;;;;38.50;22.07;;;4.30;79.50;;;;;;5080364;28;20036;-80
2021/03/08 00:17:28;;;;;;;37.97;23.70;;;4.30;79.60;;;;;;5082873;28;20039;-80
2021/03/08 00:19:54;;;;;;;38.40;23.70;;;4.30;79.70;;;;;;5109280;28;20051;-80
2021/03/08 00:22:21;;;;;;;38.47;22.43;;;4.30;79.70;;;;;;5077244;28;20054;-80
2021/03/08 00:24:48;;;;;;;38.73;24.43;;;4.30;79.80;;;;;;5108977;28;20927;-80
2021/03/08 00:27:14;;;;;;;37.43;22.47;;;4.30;79.90;;;;;;5097458;28;20054;-80
2021/03/08 00:29:41;;;;;;;37.40;23.27;;;4.30;79.90;;;;;;5080262;28;20046;-80
2021/03/08 00:32:08;;;;;;;42.10;22.93;;;4.30;80.20;;;;;;5074518;28;20044;-80
2021/03/08 00:34:36;;;;;;;34.57;20.43;;;4.30;80.20;;;;;;5080695;28;20035;-80
2021/03/08 00:37:03;;;;;;;40.57;24.27;;;4.20;80.10;;;;;;5105990;28;20772;-80
2021/03/08 00:39:29;;;;;;;41.27;23.77;;;4.30;80.40;;;;;;5069638;28;20092;-81
2021/03/08 00:41:56;;;;;;;35.37;21.10;;;4.20;80.40;;;;;;5074447;28;20490;-81
2021/03/08 00:44:22;;;;;;;31.63;18.13;;;4.20;80.40;;;;;;5061845;28;20047;-81
2021/03/08 00:46:49;;;;;;;33.37;20.27;;;4.30;80.40;;;;;;5062056;28;20048;-81
2021/03/08 00:49:15;;;;;;;30.53;18.87;;;4.30;80.40;;;;;;5062420;28;20036;-81
2021/03/08 00:51:42;;;;;;;34.87;19.87;;;4.20;80.30;;;;;;5095956;28;20051;-81
2021/03/08 00:54:09;;;;;;;38.97;22.87;;;4.30;80.40;;;;;;5081558;28;20592;-81
2021/03/08 00:56:35;;;;;;;37.93;22.37;;;4.20;80.50;;;;;;5083532;28;20055;-80
2021/03/08 00:59:02;;;;;;;30.53;19.10;;;4.20;80.50;;;;;;5095476;28;20040;-79
2021/03/08 01:01:28;;;;;;;37.33;23.73;;;4.20;80.60;;;;;;5097580;28;20051;-80
2021/03/08 01:03:55;;;;;;;39.00;23.53;;;4.20;80.70;;;;;;5090274;28;20027;-80
2021/03/08 01:06:22;;;;;;;34.47;21.10;;;4.20;80.90;;;;;;5089921;28;20070;-80
2021/03/08 01:08:49;;;;;;;36.37;22.00;;;4.20;80.90;;;;;;5061449;28;20035;-81
2021/03/08 01:11:16;;;;;;;36.27;21.53;;;4.20;81.00;;;;;;5073673;28;20039;-81
2021/03/08 01:13:59;;;;;;;30.87;19.00;;;4.20;81.00;;;;;;5074283;28;20039;-81
2021/03/08 01:16:26;;;;;;;33.63;20.70;;;4.20;81.00;;;;;;5098528;28;20050;-81
2021/03/08 01:18:53;;;;;;;32.00;19.77;;;4.20;80.90;;;;;;5072158;28;20385;-81
2021/03/08 01:21:20;;;;;;;41.23;22.90;;;4.20;81.00;;;;;;5086519;28;20047;-80
2021/03/08 01:23:47;;;;;;;33.60;20.67;;;4.20;81.20;;;;;;5076198;28;20047;-81
2021/03/08 01:26:13;;;;;;;36.20;21.50;;;4.20;81.20;;;;;;5090118;28;20058;-81
2021/03/08 01:28:40;;;;;;;35.33;21.07;;;4.20;81.10;;;;;;5066436;28;20050;-81
2021/03/08 01:31:06;;;;;;;35.33;21.97;;;4.20;81.10;;;;;;5067316;28;20040;-81
2021/03/08 01:33:33;;;;;;;32.67;19.23;;;4.20;81.10;;;;;;5077665;28;20044;-81
2021/03/08 01:35:59;;;;;;;35.47;21.97;;;4.20;81.20;;;;;;5093768;28;20040;-81
2021/03/08 01:38:26;;;;;;;36.57;21.27;;;4.20;81.20;;;;;;5048758;28;20051;-80
2021/03/08 01:40:52;;;;;;;32.93;18.80;;;4.30;81.30;;;;;;5098821;28;20056;-80
2021/03/08 01:43:23;;;;;;;34.97;20.77;;;4.20;81.30;;;;;;5089687;28;20042;-80
2021/03/08 01:45:50;;;;;;;37.03;21.50;;;4.20;81.30;;;;;;5089118;28;20046;-80
2021/03/08 01:48:17;;;;;;;37.63;21.33;;;4.30;81.30;;;;;;5089132;28;20055;-79
2021/03/08 01:50:47;;;;;;;32.50;19.40;;;4.30;81.30;;;;;;5064179;28;20042;-79
2021/03/08 01:53:17;;;;;;;36.43;20.07;;;4.30;81.30;;;;;;5088276;28;20032;-79
2021/03/08 01:55:44;;;;;;;33.87;20.03;;;4.20;81.30;;;;;;5104892;28;20032;-79
2021/03/08 01:58:11;;;;;;;34.07;20.10;;;4.20;81.30;;;;;;5104173;28;20040;-80
2021/03/08 02:00:38;;;;;;;34.03;20.17;;;4.20;81.30;;;;;;5088985;28;20512;-80
2021/03/08 02:03:06;;;;;;;32.07;20.10;;;4.20;81.30;;;;;;5068631;28;20917;-79
2021/03/08 02:05:39;;;;;;;34.57;21.13;;;4.20;81.40;;;;;;5107093;28;20367;-79
2021/03/08 02:08:10;;;;;;;33.53;20.07;;;4.20;81.40;;;;;;5101349;27;20043;-80
2021/03/08 02:10:39;;;;;;;35.53;21.43;;;4.20;81.40;;;;;;5089838;28;20039;-79
2021/03/08 02:13:37;;;;;;;37.63;19.43;;;4.20;81.40;;;;;;5089595;28;20035;-80
2021/03/08 02:16:22;;;;;;;38.03;21.43;;;4.20;81.50;;;;;;5073230;28;20366;-80
2021/03/08 02:19:08;;;;;;;35.47;20.47;;;4.20;81.40;;;;;;5089286;28;20498;-79
2021/03/08 02:22:12;;;;;;;37.33;23.27;;;4.10;81.40;;;;;;5052540;28;20043;-80
2021/03/08 02:25:17;;;;;;;34.30;20.60;;;4.10;81.60;;;;;;5086535;28;20043;-80
2021/03/08 02:27:58;;;;;;;36.80;22.33;;;4.10;81.60;;;;;;5106277;28;20032;-80
2021/03/08 02:30:48;;;;;;;39.73;23.33;;;4.10;81.70;;;;;;5091238;28;20031;-80
2021/03/08 02:33:28;;;;;;;42.13;24.20;;;4.10;81.90;;;;;;5086444;28;20569;-80
2021/03/08 02:36:00;;;;;;;42.70;22.97;;;4.10;81.90;;;;;;5105940;28;20039;-80
2021/03/08 02:38:30;;;;;;;45.83;25.23;;;4.10;81.90;;;;;;5104821;28;20047;-80
2021/03/08 02:41:02;;;;;;;41.03;23.47;;;4.10;82.10;;;;;;5089015;28;20485;-80
2021/03/08 02:43:41;;;;;;;41.83;23.90;;;4.10;82.10;;;;;;5076275;28;20043;-80
2021/03/08 02:46:13;;;;;;;42.37;23.63;;;4.10;82.20;;;;;;5087140;28;20043;-80
2021/03/08 02:48:43;;;;;;;41.53;24.27;;;4.10;82.20;;;;;;5069010;28;20489;-81
2021/03/08 02:51:11;;;;;;;42.83;24.80;;;4.10;82.20;;;;;;5089380;28;20038;-80
2021/03/08 02:53:42;;;;;;;39.40;23.07;;;4.20;82.30;;;;;;5083808;28;20047;-81
2021/03/08 02:56:16;;;;;;;52.37;28.80;;;4.10;82.30;;;;;;5074954;28;20046;-80
2021/03/08 02:58:46;;;;;;;46.27;28.67;;;4.20;82.70;;;;;;5077064;28;20043;-80
2021/03/08 03:01:14;;;;;;;43.53;25.87;;;4.20;82.80;;;;;;5104829;28;20276;-80
2021/03/08 03:03:45;;;;;;;43.33;25.67;;;4.10;82.70;;;;;;5085338;28;20528;-80
2021/03/08 03:06:13;;;;;;;44.03;26.37;;;4.20;82.80;;;;;;5086401;28;20047;-78
2021/03/08 03:08:42;;;;;;;46.60;27.17;;;4.20;82.80;;;;;;5103734;28;20032;-78
2021/03/08 03:11:10;;;;;;;47.57;26.90;;;4.20;82.80;;;;;;5068390;28;20036;-78
2021/03/08 03:13:39;;;;;;;58.30;33.53;;;4.20;82.80;;;;;;5085691;28;20044;-78
2021/03/08 03:16:08;;;;;;;52.23;30.07;;;4.20;83.10;;;;;;5104401;28;20043;-78
2021/03/08 03:18:35;;;;;;;51.80;30.57;;;4.20;83.20;;;;;;5075837;28;20066;-79
2021/03/08 03:21:06;;;;;;;48.53;29.83;;;4.20;83.30;;;;;;5101810;28;20062;-79
2021/03/08 03:23:38;;;;;;;53.60;30.57;;;4.20;83.40;;;;;;5083182;28;20031;-79
2021/03/08 03:26:08;;;;;;;47.58;29.27;;;4.20;84.00;;;;;;5085471;28;20047;-79
2021/03/08 03:28:35;;;;;;;51.90;29.97;;;4.30;83.40;;;;;;5089011;28;20054;-79
2021/03/08 03:31:04;;;;;;;51.63;27.80;;;4.30;83.40;;;;;;5073117;28;20047;-79
2021/03/08 03:33:31;;;;;;;59.30;32.07;;;4.20;83.30;;;;;;5084679;28;20043;-78
2021/03/08 03:35:58;;;;;;;60.20;30.77;;;4.20;83.40;;;;;;5085546;28;20035;-79
2021/03/08 03:38:26;;;;;;;51.07;28.73;;;4.20;83.50;;;;;;5072153;28;20405;-79
2021/03/08 03:40:52;;;;;;;51.93;29.43;;;4.20;83.50;;;;;;5073657;28;20035;-78
2021/03/08 03:43:20;;;;;;;52.50;29.13;;;4.20;83.50;;;;;;5090933;28;20039;-79
2021/03/08 03:45:47;;;;;;;53.40;30.23;;;4.20;83.70;;;;;;5078805;28;20043;-78
2021/03/08 03:48:13;;;;;;;48.10;26.57;;;4.20;83.70;;;;;;5088039;28;20410;-79
2021/03/08 03:50:40;;;;;;;53.87;31.13;;;4.20;83.70;;;;;;5097344;28;20043;-79
2021/03/08 03:53:08;;;;;;;62.43;33.57;;;4.20;83.80;;;;;;5097916;28;20042;-79
2021/03/08 03:55:35;;;;;;;56.93;31.03;;;4.20;84.00;;;;;;5088007;28;20046;-78
2021/03/08 03:58:29;;;;;;;52.40;30.70;;;4.20;84.00;;;;;;5096946;28;20042;-78
2021/03/08 04:01:06;;;;;;;53.63;30.13;;;4.20;84.20;;;;;;5096098;28;20039;-79
2021/03/08 04:03:54;;;;;;;51.27;30.17;;;4.20;84.10;;;;;;5100353;28;20058;-79
2021/03/08 04:06:26;;;;;;;53.33;28.27;;;4.20;84.10;;;;;;5070223;28;20043;-79
2021/03/08 04:08:56;;;;;;;49.25;28.80;;;4.20;84.20;;;;;;5086710;28;20045;-79
2021/03/08 04:11:26;;;;;;;45.10;26.77;;;4.10;84.10;;;;;;5104856;28;20040;-79
2021/03/08 04:13:55;;;;;;;56.73;32.97;;;4.10;84.10;;;;;;5103656;28;20122;-79
2021/03/08 04:16:22;;;;;;;51.10;29.27;;;4.10;84.40;;;;;;5070504;28;20027;-79
2021/03/08 04:18:50;;;;;;;53.57;29.73;;;4.20;84.50;;;;;;5087962;28;20062;-79
2021/03/08 04:21:18;;;;;;;49.83;29.27;;;4.10;84.50;;;;;;5086092;28;20036;-79
2021/03/08 04:23:46;;;;;;;51.77;29.10;;;4.20;84.50;;;;;;5085140;28;20040;-78
2021/03/08 04:26:14;;;;;;;53.43;30.00;;;4.20;84.60;;;;;;5104241;28;20051;-78
2021/03/08 04:28:42;;;;;;;51.73;29.97;;;4.20;84.50;;;;;;5081517;28;20043;-79
2021/03/08 04:31:11;;;;;;;49.27;28.33;;;4.20;84.70;;;;;;5087019;28;20044;-78
2021/03/08 04:33:38;;;;;;;51.03;29.77;;;4.20;84.50;;;;;;5072488;28;20035;-79
2021/03/08 04:36:06;;;;;;;42.20;24.83;;;4.20;84.50;;;;;;5072633;28;20051;-79
2021/03/08 04:38:34;;;;;;;48.73;27.77;;;4.20;84.50;;;;;;5090896;28;21137;-79
2021/03/08 04:41:02;;;;;;;56.63;30.87;;;4.30;84.60;;;;;;5098788;28;20047;-79
2021/03/08 04:43:29;;;;;;;53.13;30.93;;;4.20;84.60;;;;;;5090432;28;20061;-79
2021/03/08 04:45:57;;;;;;;48.33;28.10;;;4.20;84.70;;;;;;5090999;28;20054;-78
2021/03/08 04:48:26;;;;;;;54.40;31.33;;;4.20;84.70;;;;;;5091026;28;20834;-78
2021/03/08 04:50:54;;;;;;;48.43;28.93;;;4.30;84.90;;;;;;5074680;28;20038;-78
2021/03/08 04:53:21;;;;;;;52.17;30.53;;;4.20;84.80;;;;;;5089599;28;20028;-78
2021/03/08 04:55:49;;;;;;;58.13;32.80;;;4.20;84.80;;;;;;5109524;28;20035;-78
2021/03/08 04:58:15;;;;;;;56.43;31.50;;;4.20;85.00;;;;;;5105531;28;20402;-78
2021/03/08 05:00:42;;;;;;;53.60;31.33;;;4.20;85.00;;;;;;5078926;28;20047;-78
2021/03/08 05:03:10;;;;;;;48.80;28.13;;;4.20;85.20;;;;;;5074075;28;20425;-78
2021/03/08 05:05:37;;;;;;;53.60;31.77;;;4.20;85.20;;;;;;5064330;28;20543;-77
2021/03/08 05:08:12;;;;;;;56.27;31.63;;;4.20;85.20;;;;;;5079203;28;20043;-78
2021/03/08 05:10:39;;;;;;;52.83;32.37;;;4.20;85.30;;;;;;5091041;28;20028;-77
2021/03/08 05:13:08;;;;;;;50.07;30.67;;;4.20;85.30;;;;;;5108717;28;20032;-78
2021/03/08 05:15:36;;;;;;;52.83;30.07;;;4.20;85.40;;;;;;5073424;28;20043;-78
2021/03/08 05:18:04;;;;;;;59.03;32.63;;;4.20;85.40;;;;;;5081495;28;20036;-78
2021/03/08 05:20:32;;;;;;;52.37;30.40;;;4.20;85.60;;;;;;5077764;28;20051;-79
2021/03/08 05:23:01;;;;;;;52.07;31.33;;;4.20;85.60;;;;;;5059352;28;20039;-80
2021/03/08 05:25:28;;;;;;;51.50;29.73;;;4.20;85.60;;;;;;5092512;28;20059;-79
2021/03/08 05:27:56;;;;;;;51.77;30.27;;;4.20;85.70;;;;;;5086128;28;20048;-80
2021/03/08 05:30:25;;;;;;;46.73;27.07;;;4.20;85.60;;;;;;5086799;28;20565;-79
2021/03/08 05:32:58;;;;;;;47.93;28.80;;;4.20;85.60;;;;;;5085266;28;20410;-79
2021/03/08 05:35:28;;;;;;;55.13;33.97;;;4.20;85.60;;;;;;5094792;28;20043;-78
2021/03/08 05:37:56;;;;;;;50.47;31.23;;;4.20;85.70;;;;;;5088033;28;20044;-78
2021/03/08 05:40:50;;;;;;;53.73;30.80;;;4.20;85.80;;;;;;5085963;28;20059;-78
2021/03/08 05:43:18;;;;;;;50.40;31.00;;;4.20;85.90;;;;;;5069560;28;20048;-79
2021/03/08 05:45:58;;;;;;;53.07;31.13;;;4.20;85.80;;;;;;5086477;28;20056;-78
2021/03/08 05:49:16;;;;;;;50.67;29.23;;;4.20;85.80;;;;;;5068806;28;20040;-78
2021/03/08 05:52:04;;;;;;;48.37;28.10;;;4.20;85.80;;;;;;5005957;28;20052;-78
2021/03/08 05:55:01;;;;;;;45.43;27.50;;;4.20;85.80;;;;;;5067618;28;20044;-78
2021/03/08 05:57:46;;;;;;;44.70;27.90;;;4.30;85.80;;;;;;5085102;28;20039;-78
2021/03/08 06:00:47;;;;;;;47.57;27.77;;;4.30;85.80;;;;;;5092754;28;20048;-79
2021/03/08 06:03:33;;;;;;;53.73;31.27;;;4.30;85.70;;;;;;5081921;28;20048;-79
2021/03/08 06:06:20;;;;;;;47.63;28.40;;;4.30;85.80;;;;;;5102919;28;20390;-79
2021/03/08 06:09:10;;;;;;;44.57;27.33;;;4.30;85.80;;;;;;5084287;28;20048;-79
2021/03/08 06:11:39;;;;;;;54.87;31.80;;;4.40;85.70;;;;;;5069223;28;20043;-79
2021/03/08 06:14:07;;;;;;;54.17;32.07;;;4.40;85.70;;;;;;5086182;28;20043;-78
2021/03/08 06:16:35;;;;;;;53.30;30.70;;;4.40;85.70;;;;;;5102794;28;20047;-79
2021/03/08 06:19:07;;;;;;;49.40;30.07;;;4.40;85.70;;;;;;5073148;28;20036;-79
2021/03/08 06:21:35;;;;;;;57.50;32.00;;;4.40;85.70;;;;;;5084849;28;20044;-79
2021/03/08 06:24:04;;;;;;;48.17;28.17;;;4.50;85.70;;;;;;5085846;28;20071;-80
2021/03/08 06:26:32;;;;;;;52.67;32.33;;;4.50;85.70;;;;;;5060378;28;20067;-79
2021/03/08 06:29:00;;;;;;;46.63;28.80;;;4.50;85.70;;;;;;5065101;28;20044;-80
2021/03/08 06:31:26;;;;;;;51.50;31.27;;;4.50;85.60;;;;;;5047336;28;20028;-79
2021/03/08 06:33:54;;;;;;;62.03;35.67;;;4.50;85.60;;;;;;5047984;28;20063;-79
2021/03/08 06:36:22;;;;;;;48.73;29.50;;;4.50;85.70;;;;;;5066539;28;20037;-81
2021/03/08 06:38:49;;;;;;;53.20;31.60;;;4.60;85.70;;;;;;5061672;28;20752;-80
2021/03/08 06:41:17;;;;;;;50.77;31.00;;;4.50;85.60;;;;;;5029885;28;20048;-80
2021/03/08 06:43:43;;;;;;;52.77;30.93;;;4.60;85.60;;;;;;5065877;28;20410;-81
2021/03/08 06:46:14;;;;;;;52.60;31.30;;;4.60;85.60;;;;;;5067612;28;20049;-80
2021/03/08 06:48:41;;;;;;;53.43;31.23;;;4.60;85.60;;;;;;5031761;28;20040;-81
2021/03/08 06:51:18;;;;;;;50.80;28.93;;;4.60;85.50;;;;;;5046912;28;20032;-81
2021/03/08 06:53:46;;;;;;;51.33;30.47;;;4.60;85.50;;;;;;5049520;28;20055;-81
2021/03/08 06:56:12;;;;;;;44.97;27.87;;;4.70;85.50;;;;;;5065441;28;20040;-81
2021/03/08 06:58:39;;;;;;;49.93;31.47;;;4.70;85.40;;;;;;5049071;28;20036;-82
2021/03/08 07:01:25;;;;;;;42.43;25.43;;;4.70;85.30;;;;;;5030559;28;20029;-81
2021/03/08 07:03:53;;;;;;;47.10;28.20;;;4.80;85.30;;;;;;5065613;28;20040;-81
2021/03/08 07:06:19;;;;;;;44.77;25.97;;;4.80;85.20;;;;;;5073986;28;20059;-81
2021/03/08 07:08:46;;;;;;;43.10;26.50;;;4.90;85.10;;;;;;5047637;28;20048;-81
2021/03/08 07:11:18;;;;;;;57.07;32.17;;;4.90;85.10;;;;;;5046864;28;20043;-80
2021/03/08 07:13:45;;;;;;;43.83;27.70;;;4.90;84.90;;;;;;5049357;28;20060;-80
2021/03/08 07:16:12;;;;;;;43.30;26.73;;;5.00;84.90;;;;;;5064655;28;20278;-82
2021/03/08 07:18:40;;;;;;;51.17;29.80;;;5.00;84.80;;;;;;5050735;28;20067;-80
2021/03/08 07:21:15;;;;;;;44.97;28.23;;;5.10;84.80;;;;;;5061980;28;20045;-79
2021/03/08 07:23:43;;;;;;;49.67;29.60;;;5.10;84.70;;;;;;5059092;28;20431;-80
2021/03/08 07:26:11;;;;;;;50.80;30.10;;;5.20;84.60;;;;;;5048752;28;20498;-81
2021/03/08 07:28:38;;;;;;;48.77;30.97;;;5.20;84.50;;;;;;5087398;28;20501;-81
2021/03/08 07:31:06;;;;;;;59.03;35.13;;;5.20;84.40;;;;;;5072008;28;20035;-81
2021/03/08 07:33:33;;;;;;;52.20;32.37;;;5.30;84.40;;;;;;5045260;28;20043;-81
2021/03/08 07:36:00;;;;;;;47.93;29.70;;;5.20;84.30;;;;;;5088172;28;20035;-80
2021/03/08 07:38:34;;;;;;;41.77;26.20;;;5.30;84.30;;;;;;5072632;28;20051;-80
2021/03/08 07:41:18;;;;;;;46.10;28.40;;;5.30;84.20;;;;;;5088261;28;20047;-81
2021/03/08 07:43:47;;;;;;;47.63;28.60;;;5.40;84.10;;;;;;5068452;28;20059;-81
2021/03/08 07:46:30;;;;;;;50.07;30.43;;;5.40;84.00;;;;;;5055941;28;20393;-87
2021/03/08 07:48:58;;;;;;;50.67;32.10;;;5.50;83.90;;;;;;5078082;28;20168;-81
2021/03/08 07:51:26;;;;;;;50.50;30.70;;;5.60;83.70;;;;;;5087236;28;20066;-87
2021/03/08 07:54:01;;;;;;;49.97;29.37;;;5.60;83.70;;;;;;5087637;28;20032;-81
2021/03/08 07:56:28;;;;;;;50.37;29.73;;;5.70;83.60;;;;;;5093996;28;20039;-82
2021/03/08 07:58:55;;;;;;;45.77;29.03;;;5.80;83.40;;;;;;5070808;28;20047;-81
2021/03/08 08:01:24;;;;;;;44.47;29.13;;;5.90;83.40;;;;;;5047401;28;20057;-81
2021/03/08 08:03:51;;;;;;;43.80;27.90;;;5.90;83.10;;;;;;5088499;28;20044;-80
2021/03/08 08:06:20;;;;;;;45.80;28.17;;;6.00;83.60;;;;;;5076028;27;20051;-81
2021/03/08 08:08:56;;;;;;;49.63;31.77;;;6.10;82.80;;;;;;5091551;28;20047;-82
2021/03/08 08:11:28;;;;;;;53.80;31.67;;;6.20;82.60;;;;;;5080517;28;20753;-82
2021/03/08 08:14:03;;;;;;;49.33;30.23;;;6.20;82.40;;;;;;5060010;28;20035;-82
2021/03/08 08:16:34;;;;;;;37.53;24.97;;;6.30;82.20;;;;;;5091252;27;20053;-81
2021/03/08 08:19:03;;;;;;;42.50;25.77;;;6.40;82.20;;;;;;5072647;28;20470;-83
2021/03/08 08:21:34;;;;;;;40.57;26.07;;;6.40;82.10;;;;;;5068844;28;20466;-82
2021/03/08 08:24:15;;;;;;;49.23;29.87;;;6.50;81.90;;;;;;5098611;28;20405;-82
2021/03/08 08:26:42;;;;;;;44.53;28.77;;;6.50;81.60;;;;;;5057606;28;20063;-81
2021/03/08 08:29:09;;;;;;;43.13;27.17;;;6.50;81.50;;;;;;5045163;28;20503;-80
2021/03/08 08:31:57;;;;;;;44.00;28.07;;;6.50;81.60;;;;;;5032886;28;20041;-81
2021/03/08 08:34:34;;;;;;;41.23;25.77;;;6.50;81.60;;;;;;5031505;28;20044;-81
2021/03/08 08:37:21;;;;;;;43.17;27.00;;;6.50;81.50;;;;;;5050920;28;20040;-80
2021/03/08 08:39:51;;;;;;;40.20;26.73;;;6.50;81.60;;;;;;5053032;28;20048;-80
2021/03/08 08:42:23;;;;;;;48.43;31.77;;;6.50;81.30;;;;;;5051397;28;20029;-81
2021/03/08 08:44:54;;;;;;;46.23;28.83;;;6.50;81.20;;;;;;5067320;28;20048;-81
2021/03/08 08:47:22;;;;;;;45.33;28.60;;;6.50;81.30;;;;;;5066468;28;20407;-80
2021/03/08 08:49:50;;;;;;;48.40;30.38;;;6.50;81.30;;;;;;5035913;28;20036;-81
2021/03/08 08:52:37;;;;;;;49.57;30.73;;;6.50;81.30;;;;;;5065540;28;20028;-80
2021/03/08 08:55:04;;;;;;;46.87;29.13;;;6.60;81.20;;;;;;5053035;28;20561;-80
2021/03/08 08:57:31;;;;;;;48.00;31.20;;;6.70;81.00;;;;;;5066749;28;20040;-83
2021/03/08 09:00:19;;;;;;;45.43;27.03;;;6.80;80.60;;;;;;5040660;28;20044;-81
2021/03/08 09:02:47;;;;;;;48.03;29.65;;;6.80;80.50;;;;;;5064490;28;20048;-86
2021/03/08 09:05:43;;;;;;;48.47;29.40;;;6.90;80.30;;;;;;5066755;28;20044;-81
2021/03/08 09:08:18;;;;;;;45.65;30.10;;;7.00;80.20;;;;;;5040281;28;20052;-83
2021/03/08 09:10:45;;;;;;;43.15;28.88;;;7.10;79.90;;;;;;5064593;28;20059;-83
2021/03/08 09:13:11;;;;;;;48.30;30.30;;;7.20;79.80;;;;;;5032014;28;20044;-85
2021/03/08 09:15:38;;;;;;;46.97;30.30;;;7.20;79.50;;;;;;5030695;28;20492;-83
2021/03/08 09:18:05;;;;;;;45.10;29.87;;;7.30;79.20;;;;;;5048660;28;20398;-81
2021/03/08 09:20:32;;;;;;;46.65;28.38;;;7.30;79.10;;;;;;5064821;28;20052;-82
2021/03/08 09:23:01;;;;;;;44.28;27.60;;;7.40;79.00;;;;;;5049154;28;20040;-82
2021/03/08 09:25:40;;;;;;;47.60;31.50;;;7.40;78.90;;;;;;5044205;27;20524;-80
2021/03/08 09:28:11;;;;;;;46.77;28.07;;;7.50;78.70;;;;;;5091474;28;20512;-79
2021/03/08 09:30:42;;;;;;;48.23;28.97;;;7.40;78.60;;;;;;5078336;28;20059;-81
2021/03/08 09:33:11;;;;;;;42.75;27.75;;;7.50;78.70;;;;;;5072080;27;20031;-82
2021/03/08 09:35:42;;;;;;;42.83;26.60;;;7.50;78.70;;;;;;5070982;28;20031;-82
2021/03/08 09:38:16;;;;;;;45.83;27.15;;;7.60;78.70;;;;;;5089791;28;20031;-82
2021/03/08 09:40:51;;;;;;;47.00;28.27;;;7.70;78.40;;;;;;5106902;28;20501;-84
2021/03/08 09:43:24;;;;;;;41.78;26.20;;;7.80;78.30;;;;;;5090791;28;20058;-81
2021/03/08 09:46:09;;;;;;;48.40;29.63;;;7.80;78.10;;;;;;5072838;28;20039;-81
2021/03/08 09:48:37;;;;;;;45.75;28.55;;;7.90;77.80;;;;;;5070315;28;20039;-82
2021/03/08 09:51:08;;;;;;;48.25;29.38;;;8.00;77.90;;;;;;5074956;27;20032;-81
2021/03/08 09:53:40;;;;;;;51.75;29.95;;;8.10;77.60;;;;;;5067860;28;20028;-81
2021/03/08 09:56:11;;;;;;;44.60;27.13;;;8.10;77.50;;;;;;5089556;28;20032;-82
2021/03/08 09:58:38;;;;;;;49.15;28.88;;;8.20;77.40;;;;;;5095134;28;20074;-82
2021/03/08 10:01:22;;;;;;;50.15;29.77;;;8.30;77.20;;;;;;5058292;28;20032;-81
2021/03/08 10:03:50;;;;;;;41.33;26.17;;;8.40;77.20;;;;;;5090905;28;20031;-81
2021/03/08 10:06:27;;;;;;;43.63;26.23;;;8.50;77.00;;;;;;5074518;28;20047;-82
2021/03/08 10:08:54;;;;;;;36.58;22.65;;;8.60;76.80;;;;;;5086476;28;20043;-81
2021/03/08 10:11:25;;;;;;;46.20;28.67;;;8.60;76.70;;;;;;5096917;28;20505;-85
2021/03/08 10:13:53;;;;;;;43.30;26.75;;;8.70;76.60;;;;;;5073775;28;20048;-80
2021/03/08 10:16:25;;;;;;;46.63;28.45;;;8.80;76.60;;;;;;5106242;28;20409;-81
2021/03/08 10:18:52;;;;;;;46.65;28.77;;;8.90;76.40;;;;;;5072039;28;20044;-80
2021/03/08 10:21:20;;;;;;;39.95;24.42;;;8.90;76.10;;;;;;5064358;28;20032;-81
2021/03/08 10:23:48;;;;;;;37.40;24.73;;;9.00;76.00;;;;;;5059449;28;20047;-84
2021/03/08 10:26:17;;;;;;;38.63;26.33;;;9.00;75.90;;;;;;5072521;28;20048;-85
2021/03/08 10:28:45;;;;;;;37.13;24.42;;;9.00;75.70;;;;;;5072343;27;20027;-84
2021/03/08 10:31:20;;;;;;;36.05;24.23;;;9.00;76.30;;;;;;5060860;27;20038;-82
2021/03/08 10:34:08;;;;;;;39.85;26.33;;;9.10;75.90;;;;;;5074361;28;20032;-81
2021/03/08 10:36:39;;;;;;;33.78;23.00;;;9.10;75.70;;;;;;5098363;28;20513;-83
2021/03/08 10:39:13;;;;;;;41.90;26.48;;;9.20;75.70;;;;;;5064037;28;20044;-82
2021/03/08 10:41:43;;;;;;;35.58;24.40;;;9.40;75.60;;;;;;5088238;28;20051;-83
2021/03/08 10:44:21;;;;;;;36.17;25.58;;;9.50;75.50;;;;;;5065012;28;20032;-83
2021/03/08 10:46:48;;;;;;;38.83;25.77;;;9.80;75.30;;;;;;5075390;28;20036;-83
2021/03/08 10:49:14;;;;;;;41.13;29.40;;;9.90;74.50;;;;;;5104680;28;20051;-82
2021/03/08 10:51:42;;;;;;;43.35;29.10;;;10.00;73.40;;;;;;5073868;28;20098;-83
2021/03/08 10:54:09;;;;;;;40.97;28.17;;;10.10;72.80;;;;;;5072735;28;20508;-83
2021/03/08 10:56:37;;;;;;;41.65;27.13;;;10.30;72.50;;;;;;5105666;28;20039;-82
2021/03/08 10:59:21;;;;;;;43.97;27.17;;;10.30;72.20;;;;;;5090180;28;20047;-83
2021/03/08 11:02:10;;;;;;;38.67;26.95;;;10.40;71.80;;;;;;5085460;28;20032;-84
2021/03/08 11:04:39;;;;;;;40.65;27.25;;;10.40;71.70;;;;;;5087192;28;20035;-82
2021/03/08 11:07:06;;;;;;;40.63;28.30;;;10.40;71.20;;;;;;5074200;28;20565;-82
2021/03/08 11:09:36;;;;;;;40.13;27.27;;;10.40;71.30;;;;;;5094481;28;20044;-85
2021/03/08 11:12:05;;;;;;;39.28;27.30;;;10.50;71.20;;;;;;5077120;28;20032;-80
2021/03/08 11:14:51;;;;;;;42.05;28.00;;;10.50;71.10;;;;;;5104294;28;20035;-80
2021/03/08 11:17:36;;;;;;;38.22;25.63;;;10.50;70.80;;;;;;5074383;28;20881;-81
2021/03/08 11:20:14;;;;;;;40.25;27.05;;;10.50;71.00;;;;;;5073382;28;20050;-79
2021/03/08 11:22:55;;;;;;;38.28;25.85;;;10.50;71.00;;;;;;5073481;28;20055;-80
2021/03/08 11:25:41;;;;;;;41.03;26.48;;;10.50;71.00;;;;;;5048547;28;20082;-80
2021/03/08 11:28:11;;;;;;;39.65;27.42;;;10.60;71.00;;;;;;5068773;28;20058;-79
2021/03/08 11:30:39;;;;;;;43.08;28.55;;;10.70;70.60;;;;;;5085700;28;20059;-80
2021/03/08 11:33:11;;;;;;;37.13;25.42;;;10.70;70.50;;;;;;5071499;28;20860;-79
2021/03/08 11:35:39;;;;;;;51.63;33.08;;;10.80;71.20;;;;;;5075107;28;20038;-81
2021/03/08 11:38:15;;;;;;;32.80;23.63;;;10.80;69.60;;;;;;5069230;28;20040;-85
2021/03/08 11:40:47;;;;;;;40.50;28.40;;;10.90;70.20;;;;;;5091191;28;20050;-83
2021/03/08 11:43:24;;;;;;;44.28;29.45;;;10.90;69.60;;;;;;5094988;28;21666;-80
2021/03/08 11:45:52;;;;;;;45.15;28.52;;;11.00;69.30;;;;;;5082865;28;20043;-88
2021/03/08 11:48:25;;;;;;;37.38;25.20;;;11.00;69.10;;;;;;5069095;28;20051;-83
2021/03/08 11:50:52;;;;;;;40.22;27.60;;;11.10;69.10;;;;;;5077436;28;20036;-81
2021/03/08 11:53:27;;;;;;;43.00;26.95;;;11.10;68.70;;;;;;5096449;28;20048;-88
2021/03/08 11:55:54;;;;;;;37.35;26.20;;;11.00;68.90;;;;;;5089140;27;20386;-80
2021/03/08 11:58:22;;;;;;;37.20;25.92;;;10.90;68.90;;;;;;5105859;28;20027;-89
2021/03/08 12:00:49;;;;;;;42.25;28.15;;;10.80;68.90;;;;;;5076456;28;20059;-83
2021/03/08 12:03:16;;;;;;;40.83;25.70;;;10.80;69.20;;;;;;5076928;28;20505;-83
2021/03/08 12:05:42;;;;;;;37.78;26.55;;;10.70;69.10;;;;;;5093991;28;20062;-82
2021/03/08 12:08:09;;;;;;;46.53;29.50;;;10.60;69.30;;;;;;5091039;28;20040;-80
2021/03/08 12:10:36;;;;;;;45.53;29.08;;;10.40;69.00;;;;;;5103380;28;20077;-82
2021/03/08 12:13:03;;;;;;;38.15;24.80;;;10.20;69.20;;;;;;5039716;28;20039;-80
2021/03/08 12:15:29;;;;;;;55.97;36.88;;;10.10;70.00;;;;;;5031964;28;20140;-82
2021/03/08 12:17:56;;;;;;;45.05;29.63;;;10.10;70.40;;;;;;5057851;28;20117;-78
2021/03/08 12:20:23;;;;;;;36.65;24.45;;;10.10;70.60;;;;;;5109465;28;20062;-85
2021/03/08 12:22:49;;;;;;;38.97;26.08;;;10.30;70.50;;;;;;5052743;28;20039;-79
2021/03/08 12:25:18;;;;;;;35.42;24.38;;;10.40;70.10;;;;;;5091804;28;20046;-91
2021/03/08 12:27:46;;;;;;;39.58;26.33;;;10.50;70.00;;;;;;5037843;28;20052;-81
2021/03/08 12:30:13;;;;;;;44.75;29.73;;;10.60;69.00;;;;;;5046486;28;20041;-80
2021/03/08 12:32:42;;;;;;;41.90;26.65;;;10.60;69.10;;;;;;5056890;28;20040;-79
2021/03/08 12:35:09;;;;;;;37.10;25.58;;;10.60;68.90;;;;;;5064198;28;20483;-80
2021/03/08 12:37:36;;;;;;;34.72;23.17;;;10.60;68.90;;;;;;5058241;28;20045;-79
2021/03/08 12:40:03;;;;;;;37.83;26.63;;;10.70;68.90;;;;;;5052945;28;20032;-80
2021/03/08 12:42:29;;;;;;;35.28;23.48;;;10.70;68.40;;;;;;5023800;28;20043;-78
2021/03/08 12:44:56;;;;;;;34.28;23.70;;;10.80;68.20;;;;;;5032414;28;20040;-78
2021/03/08 12:47:22;;;;;;;37.63;24.90;;;10.80;68.00;;;;;;5061137;28;20053;-79
2021/03/08 12:49:49;;;;;;;40.25;25.88;;;10.80;68.20;;;;;;5023910;28;20048;-79
2021/03/08 12:52:15;;;;;;;46.25;28.27;;;10.80;68.30;;;;;;5048587;28;20035;-79
2021/03/08 12:54:42;;;;;;;44.38;27.38;;;10.80;68.10;;;;;;5030678;28;20032;-82